Time;durP1;ratioP1;P1;durP2;ratioP2;P2;SDS_P1;SDS_P2;PMS_P1;PMS_P2;Temp;Humidity;BMP_temperature;BMP_pressure;BME280_temperature;BME280_humidity;BME280_pressure;Samples;Min_cycle;Max_cycle;Signal;HPM_P1;HPM_P2
2023/06/03 00:01:27;;;;;;;0.52;0.52;;;;;;;17.14;46.36;101413.69;4913647;30;20052;-86
2023/06/03 00:05:30;;;;;;;0.60;0.60;;;;;;;17.12;47.00;101409.38;4914947;30;20439;-86
2023/06/03 00:14:06;;;;;;;0.32;0.32;;;;;;;17.05;47.09;101410.56;4980931;29;20056;-86
2023/06/03 00:18:17;;;;;;;0.43;0.43;;;;;;;16.96;47.18;101411.81;4943832;29;20069;-85
2023/06/03 00:21:35;;;;;;;0.52;0.52;;;;;;;16.92;47.33;101413.72;4931680;29;20047;-86
2023/06/03 00:37:25;;;;;;;1.30;0.63;;;;;;;16.77;47.37;101414.34;4938324;30;20070;-86
2023/06/03 00:41:45;;;;;;;0.73;0.73;;;;;;;16.72;47.56;101411.06;4956995;29;20032;-85
2023/06/03 00:45:42;;;;;;;1.00;0.95;;;;;;;16.65;48.25;101421.88;4965419;29;20105;-86
2023/06/03 00:50:11;;;;;;;0.35;0.35;;;;;;;16.59;47.88;101411.56;4986843;29;20037;-87
2023/06/03 00:54:43;;;;;;;1.23;1.13;;;;;;;16.56;48.20;101414.34;4955805;29;20605;-86
2023/06/03 01:03:01;;;;;;;0.50;0.50;;;;;;;16.44;48.21;101399.81;4932157;29;20087;-86
2023/06/03 01:07:23;;;;;;;0.50;0.50;;;;;;;16.42;48.41;101404.31;4861092;30;20326;-86
2023/06/03 01:11:33;;;;;;;0.70;0.68;;;;;;;16.40;48.84;101397.34;4865866;30;20041;-85
2023/06/03 01:16:00;;;;;;;0.30;0.30;;;;;;;16.34;48.49;101401.09;4868446;30;20053;-86
2023/06/03 01:32:48;;;;;;;0.60;0.60;;;;;;;16.20;49.22;101393.72;4963156;29;20085;-86
2023/06/03 01:41:45;;;;;;;0.50;0.50;;;;;;;16.08;49.09;101394.19;4869986;30;20266;-86
2023/06/03 01:50:17;;;;;;;0.80;0.80;;;;;;;16.00;49.46;101403.28;4917734;29;20134;-85
2023/06/03 01:58:07;;;;;;;0.40;0.40;;;;;;;15.93;49.51;101401.81;4952635;29;20043;-86
2023/06/03 02:05:38;;;;;;;0.65;0.65;;;;;;;15.84;49.94;101404.81;5151384;22;20100;-86
2023/06/03 02:08:30;;;;;;;0.20;0.20;;;;;;;15.80;50.20;101409.31;5174730;28;20041;-86
2023/06/03 02:11:21;;;;;;;0.40;0.40;;;;;;;15.80;50.23;101405.84;5188694;28;20453;-87
2023/06/03 02:14:12;;;;;;;1.35;0.75;;;;;;;15.76;49.69;101398.91;5181193;28;20512;-86
2023/06/03 02:17:03;;;;;;;3.88;1.17;;;;;;;15.73;50.09;101405.19;5184540;28;20481;-86
2023/06/03 02:19:55;;;;;;;0.85;0.40;;;;;;;15.61;50.17;101406.53;5187948;28;20045;-85
2023/06/03 02:22:46;;;;;;;0.40;0.40;;;;;;;15.63;50.49;101402.03;5200529;28;20045;-85
2023/06/03 02:25:37;;;;;;;0.40;0.40;;;;;;;15.60;50.66;101403.94;5171323;28;20136;-86
2023/06/03 02:28:29;;;;;;;2.63;1.55;;;;;;;15.57;50.50;101405.78;5169863;28;20413;-85
2023/06/03 02:31:20;;;;;;;2.15;0.75;;;;;;;15.51;49.84;101400.72;5169206;28;20065;-87
2023/06/03 02:34:11;;;;;;;0.60;0.60;;;;;;;15.48;51.54;101397.31;5186079;28;20033;-84
2023/06/03 02:37:01;;;;;;;0.43;0.43;;;;;;;15.47;50.93;101406.16;5176691;28;20072;-85
2023/06/03 02:39:52;;;;;;;0.52;0.52;;;;;;;15.46;50.78;101404.44;5192282;28;20104;-84
2023/06/03 02:42:43;;;;;;;0.40;0.40;;;;;;;15.42;51.55;101407.19;5180213;28;20025;-85
2023/06/03 02:45:34;;;;;;;0.30;0.30;;;;;;;15.45;50.90;101405.34;5225503;28;20018;-85
2023/06/03 02:48:24;;;;;;;0.88;0.68;;;;;;;15.40;50.99;101403.75;5194494;28;20020;-87
2023/06/03 02:51:15;;;;;;;1.15;0.70;;;;;;;15.38;51.32;101410.00;5204924;28;20483;-85
2023/06/03 02:54:07;;;;;;;0.50;0.50;;;;;;;15.36;50.84;101415.34;5177486;28;20444;-87
2023/06/03 02:56:57;;;;;;;1.65;0.70;;;;;;;15.35;51.37;101421.56;5202318;28;20068;-86
2023/06/03 02:59:48;;;;;;;0.38;0.38;;;;;;;15.26;50.93;101419.22;5174190;28;20053;-87
2023/06/03 03:02:39;;;;;;;0.40;0.40;;;;;;;15.18;51.00;101419.53;5175850;28;20559;-87
2023/06/03 03:05:30;;;;;;;0.40;0.40;;;;;;;15.21;51.09;101423.84;5192444;28;20060;-86
2023/06/03 03:08:22;;;;;;;0.52;0.52;;;;;;;15.20;51.44;101417.69;5182126;28;20026;-87
2023/06/03 03:11:14;;;;;;;0.50;0.50;;;;;;;15.15;51.23;101424.06;5179312;28;20271;-85
2023/06/03 03:14:06;;;;;;;0.60;0.60;;;;;;;15.16;51.60;101423.16;5161641;28;20038;-85
2023/06/03 03:16:56;;;;;;;1.67;0.63;;;;;;;15.15;51.52;101424.06;5192874;28;20044;-85
2023/06/03 03:19:47;;;;;;;0.43;0.43;;;;;;;15.10;51.83;101430.34;5179217;28;20536;-85
2023/06/03 03:22:40;;;;;;;2.75;1.35;;;;;;;15.10;51.61;101422.44;5191963;28;20078;-84
2023/06/03 03:25:31;;;;;;;0.20;0.20;;;;;;;15.06;51.61;101427.88;5190251;28;20021;-87
2023/06/03 03:28:23;;;;;;;0.30;0.30;;;;;;;15.02;52.10;101429.75;5175530;28;20412;-85
2023/06/03 03:31:14;;;;;;;0.47;0.47;;;;;;;15.01;51.99;101427.19;5192231;28;20041;-86
2023/06/03 03:34:07;;;;;;;1.27;1.17;;;;;;;14.98;51.49;101429.91;5188869;28;20141;-84
2023/06/03 03:36:58;;;;;;;0.63;0.63;;;;;;;14.98;51.91;101427.28;5193383;28;20130;-84
2023/06/03 03:39:49;;;;;;;1.13;1.05;;;;;;;14.88;51.66;101419.66;5176759;28;20291;-84
2023/06/03 03:42:40;;;;;;;1.75;1.17;;;;;;;14.86;52.08;101418.88;5191063;28;20045;-85
2023/06/03 03:45:40;;;;;;;1.10;0.88;;;;;;;14.87;51.87;101425.00;5177342;28;20091;-86
2023/06/03 03:48:32;;;;;;;0.75;0.75;;;;;;;14.83;51.84;101423.38;5176016;28;20044;-86
2023/06/03 03:51:23;;;;;;;0.20;0.20;;;;;;;14.81;51.63;101423.41;5191422;28;20564;-87
2023/06/03 03:54:13;;;;;;;0.50;0.50;;;;;;;14.81;51.97;101426.06;5207749;28;20053;-86
2023/06/03 03:57:14;;;;;;;0.20;0.20;;;;;;;14.81;52.38;101419.94;5188012;28;20242;-85
2023/06/03 04:00:09;;;;;;;0.28;0.28;;;;;;;14.77;51.75;101420.03;5203995;28;20546;-84
2023/06/03 04:03:00;;;;;;;0.52;0.52;;;;;;;14.74;51.75;101432.47;5202373;28;20026;-83
2023/06/03 04:05:52;;;;;;;0.95;0.93;;;;;;;14.72;51.85;101432.53;5179067;28;20115;-86
2023/06/03 04:08:46;;;;;;;0.30;0.30;;;;;;;14.68;51.38;101436.16;5177132;28;20501;-85
2023/06/03 04:11:41;;;;;;;0.45;0.45;;;;;;;14.68;52.06;101436.16;5190701;28;20667;-84
2023/06/03 04:14:44;;;;;;;0.65;0.65;;;;;;;14.68;52.39;101436.16;5169472;28;20033;-87
2023/06/03 04:17:37;;;;;;;0.95;0.82;;;;;;;14.68;52.62;101436.16;5192110;28;20033;-86
2023/06/03 04:20:45;;;;;;;0.23;0.23;;;;;;;14.66;52.31;101432.75;5187283;28;20033;-86
2023/06/03 04:23:35;;;;;;;0.40;0.40;;;;;;;14.62;52.75;101436.34;5186200;28;20223;-84
2023/06/03 04:26:27;;;;;;;1.50;0.98;;;;;;;14.63;52.34;101438.06;5190412;28;20496;-87
2023/06/03 04:29:18;;;;;;;0.60;0.60;;;;;;;14.62;52.30;101436.34;5189251;28;20032;-86
2023/06/03 04:32:09;;;;;;;0.40;0.40;;;;;;;14.61;52.10;101442.53;5204444;28;20045;-86
2023/06/03 04:34:59;;;;;;;0.52;0.52;;;;;;;14.59;52.42;101444.34;5192823;28;20619;-86
2023/06/03 04:37:50;;;;;;;0.45;0.45;;;;;;;14.57;52.33;101441.78;5205228;28;20067;-85
2023/06/03 04:40:41;;;;;;;4.03;2.15;;;;;;;14.54;52.65;101439.25;5206905;28;20044;-84
2023/06/03 04:43:33;;;;;;;0.20;0.20;;;;;;;14.47;53.12;101435.06;5171361;28;20034;-86
2023/06/03 04:46:29;;;;;;;0.50;0.50;;;;;;;14.48;52.70;101431.50;5169295;28;20029;-84
2023/06/03 04:49:20;;;;;;;0.50;0.50;;;;;;;14.46;52.71;101439.47;5179799;28;20464;-84
2023/06/03 04:52:10;;;;;;;1.40;0.93;;;;;;;14.38;53.49;101446.78;5182820;28;20575;-85
2023/06/03 04:55:02;;;;;;;0.75;0.75;;;;;;;14.41;52.55;101443.19;5182063;28;20504;-83
2023/06/03 04:57:54;;;;;;;0.57;0.57;;;;;;;14.44;52.30;101443.94;5195634;28;20037;-85
2023/06/03 05:00:45;;;;;;;0.75;0.75;;;;;;;14.43;52.09;101444.84;5184228;28;20033;-84
2023/06/03 05:03:38;;;;;;;0.30;0.30;;;;;;;14.40;52.72;101447.59;5180086;28;20041;-84
2023/06/03 05:06:30;;;;;;;0.20;0.20;;;;;;;14.38;53.10;101446.78;5182734;28;20146;-86
2023/06/03 05:09:21;;;;;;;0.40;0.40;;;;;;;14.33;52.98;101446.06;5184003;28;20026;-85
2023/06/03 05:12:12;;;;;;;0.20;0.20;;;;;;;14.27;54.00;101440.97;5195581;28;20478;-86
2023/06/03 05:15:03;;;;;;;0.57;0.57;;;;;;;14.29;53.77;101440.03;5184641;28;20022;-84
2023/06/03 05:17:54;;;;;;;0.22;0.22;;;;;;;14.25;54.05;101440.19;5183819;28;20031;-84
2023/06/03 05:20:45;;;;;;;0.65;0.65;;;;;;;14.15;53.87;101436.94;5182739;28;20108;-85
2023/06/03 05:23:36;;;;;;;0.20;0.20;;;;;;;14.13;54.97;101430.88;5183788;28;20037;-85
2023/06/03 05:26:27;;;;;;;0.40;0.40;;;;;;;13.99;55.35;101436.56;5168548;28;20465;-86
2023/06/03 05:29:18;;;;;;;0.60;0.60;;;;;;;14.06;54.26;101443.38;5172939;28;20057;-83
2023/06/03 05:32:08;;;;;;;0.73;0.73;;;;;;;14.24;53.53;101441.09;5223809;28;20057;-82
2023/06/03 05:34:59;;;;;;;0.50;0.50;;;;;;;14.31;53.29;101438.19;5177484;28;20148;-86
2023/06/03 05:37:50;;;;;;;0.88;0.45;;;;;;;14.23;54.10;101444.63;5188705;28;20046;-83
2023/06/03 05:40:41;;;;;;;0.25;0.25;;;;;;;14.29;53.35;101441.78;5194712;28;20037;-85
2023/06/03 05:43:31;;;;;;;0.30;0.30;;;;;;;14.10;54.29;101442.34;5201069;28;20034;-84
2023/06/03 05:46:22;;;;;;;0.60;0.60;;;;;;;14.19;52.81;101437.69;5222394;28;20026;-84
2023/06/03 05:49:13;;;;;;;0.57;0.55;;;;;;;14.07;54.42;101442.47;5209799;28;20061;-83
2023/06/03 05:52:04;;;;;;;0.50;0.50;;;;;;;14.20;53.42;101440.31;5192721;28;20055;-83
2023/06/03 05:54:55;;;;;;;0.57;0.47;;;;;;;14.24;53.14;101441.09;5208057;28;20097;-84
2023/06/03 05:57:46;;;;;;;2.28;1.85;;;;;;;14.26;53.26;101429.56;5212133;28;20037;-84
2023/06/03 06:00:36;;;;;;;0.20;0.20;;;;;;;14.32;53.00;101434.63;5182201;28;20033;-83
2023/06/03 06:03:27;;;;;;;0.63;0.60;;;;;;;14.21;53.06;101436.78;5195307;28;20045;-85
2023/06/03 06:06:18;;;;;;;0.30;0.30;;;;;;;14.32;52.30;101429.34;5167628;28;20037;-85
2023/06/03 06:09:09;;;;;;;0.43;0.43;;;;;;;14.40;52.39;101442.34;5184015;28;20064;-84
2023/06/03 06:11:59;;;;;;;0.22;0.22;;;;;;;14.33;52.16;101440.81;5188003;28;20068;-85
2023/06/03 06:14:50;;;;;;;0.20;0.20;;;;;;;14.48;51.83;101437.66;5188199;28;20033;-84
2023/06/03 06:17:42;;;;;;;0.20;0.20;;;;;;;14.28;51.56;101429.50;5174190;28;20097;-84
2023/06/03 06:20:33;;;;;;;0.40;0.40;;;;;;;14.37;50.96;101442.41;5201934;28;20052;-86
2023/06/03 06:23:25;;;;;;;0.73;0.60;;;;;;;14.40;50.79;101436.16;5187381;28;20034;-84
2023/06/03 06:26:16;;;;;;;0.20;0.20;;;;;;;14.47;51.24;101435.94;5188083;28;20044;-85
2023/06/03 06:29:07;;;;;;;1.20;0.40;;;;;;;14.63;51.08;101440.72;5186104;28;20025;-84
2023/06/03 06:31:59;;;;;;;0.30;0.30;;;;;;;14.52;50.81;101441.06;5186335;28;20132;-85
2023/06/03 06:34:51;;;;;;;0.43;0.43;;;;;;;14.64;50.95;101440.66;5174690;28;20060;-84
2023/06/03 06:37:42;;;;;;;1.85;0.90;;;;;;;14.67;50.66;101438.88;5184159;28;20092;-85
2023/06/03 06:40:36;;;;;;;0.20;0.20;;;;;;;14.58;49.97;101434.75;5187816;28;20115;-85
2023/06/03 06:43:28;;;;;;;0.30;0.30;;;;;;;14.67;50.60;101445.00;5195468;28;20037;-84
2023/06/03 06:46:19;;;;;;;0.30;0.30;;;;;;;14.67;50.25;101445.00;5184914;28;20528;-86
2023/06/03 06:49:10;;;;;;;0.35;0.35;;;;;;;14.78;48.13;101434.97;5170369;28;20068;-84
2023/06/03 06:52:01;;;;;;;0.20;0.20;;;;;;;14.76;46.87;101434.13;5184777;28;20045;-84
2023/06/03 06:54:55;;;;;;;0.28;0.28;;;;;;;14.79;48.05;101439.34;5185879;28;20489;-84
2023/06/03 06:57:46;;;;;;;0.40;0.40;;;;;;;14.86;47.48;101433.84;5189932;28;20048;-85
2023/06/03 07:00:38;;;;;;;0.20;0.20;;;;;;;14.87;47.17;101438.22;5171075;28;20018;-86
2023/06/03 07:03:28;;;;;;;0.20;0.20;;;;;;;14.92;48.35;101436.25;5169560;28;20048;-83
2023/06/03 07:06:19;;;;;;;0.30;0.30;;;;;;;15.00;48.80;101443.94;5186365;28;20088;-84
2023/06/03 07:09:10;;;;;;;0.32;0.32;;;;;;;15.08;47.52;101439.25;5188026;28;20030;-85
2023/06/03 07:12:01;;;;;;;0.80;0.80;;;;;;;15.14;47.69;101443.47;5188758;28;20132;-85
2023/06/03 07:14:52;;;;;;;0.40;0.40;;;;;;;15.19;48.07;101437.13;5191709;28;20069;-86
2023/06/03 07:17:42;;;;;;;1.35;1.08;;;;;;;15.26;47.81;101443.03;5185559;28;20044;-85
2023/06/03 07:20:35;;;;;;;0.28;0.28;;;;;;;15.31;47.84;101448.16;5197673;28;20006;-85
2023/06/03 07:23:27;;;;;;;0.80;0.80;;;;;;;15.32;47.73;101442.84;5193030;28;20053;-83
2023/06/03 07:26:18;;;;;;;0.20;0.20;;;;;;;15.36;46.33;101440.94;5178457;28;20034;-87
2023/06/03 07:29:09;;;;;;;0.55;0.50;;;;;;;15.41;46.76;101431.91;5189376;28;20084;-86
2023/06/03 07:32:00;;;;;;;0.22;0.22;;;;;;;15.47;46.23;101440.56;5186980;28;20061;-86
2023/06/03 07:34:51;;;;;;;0.60;0.60;;;;;;;15.63;45.87;101448.78;5194338;28;20033;-85
2023/06/03 07:37:42;;;;;;;0.20;0.20;;;;;;;15.65;46.28;101441.66;5193928;28;20037;-86
2023/06/03 07:40:41;;;;;;;0.20;0.20;;;;;;;15.59;45.95;101440.09;5192838;28;20041;-83
2023/06/03 07:43:33;;;;;;;0.82;0.82;;;;;;;15.72;46.35;101441.38;5183106;28;20422;-83
2023/06/03 07:46:36;;;;;;;0.20;0.20;;;;;;;15.83;46.49;101426.88;5176449;28;20030;-83
2023/06/03 07:49:27;;;;;;;1.75;0.73;;;;;;;15.90;45.64;101433.72;5199535;28;20021;-83
2023/06/03 07:52:21;;;;;;;0.50;0.50;;;;;;;15.93;45.79;101425.63;5178794;28;20107;-83
2023/06/03 07:55:12;;;;;;;1.65;1.00;;;;;;;15.99;45.40;101424.53;5177904;28;20029;-83
2023/06/03 07:58:02;;;;;;;0.20;0.20;;;;;;;16.10;45.40;101432.06;5168698;28;20068;-83
2023/06/03 08:00:53;;;;;;;0.50;0.50;;;;;;;16.13;44.22;101426.66;5177498;28;20033;-84
2023/06/03 08:03:44;;;;;;;10.32;2.10;;;;;;;16.17;44.79;101430.88;5167183;28;20420;-83
2023/06/03 08:06:36;;;;;;;0.63;0.60;;;;;;;16.25;45.26;101426.16;5170193;28;20033;-84
2023/06/03 08:09:33;;;;;;;3.92;1.27;;;;;;;16.36;45.62;101420.47;5187215;28;20030;-84
2023/06/03 08:12:34;;;;;;;0.32;0.32;;;;;;;16.40;45.40;101423.84;5170026;28;20034;-84
2023/06/03 08:15:27;;;;;;;0.20;0.20;;;;;;;16.42;45.19;101420.19;5171310;28;20036;-84
2023/06/03 08:18:40;;;;;;;1.17;0.90;;;;;;;16.52;45.17;101410.97;5171668;28;20044;-84
2023/06/03 08:21:33;;;;;;;0.77;0.65;;;;;;;16.64;46.49;101414.00;5160282;28;20064;-84
2023/06/03 08:24:24;;;;;;;0.40;0.40;;;;;;;16.64;45.62;101406.94;5171396;28;20064;-84
2023/06/03 08:27:15;;;;;;;2.42;0.40;;;;;;;16.77;45.81;101411.72;5188007;28;20038;-85
2023/06/03 08:30:07;;;;;;;0.50;0.50;;;;;;;16.82;45.57;101409.72;5197852;28;20040;-84
2023/06/03 08:32:58;;;;;;;0.40;0.40;;;;;;;16.77;45.75;101403.75;5168504;28;20049;-83
2023/06/03 08:35:49;;;;;;;0.30;0.30;;;;;;;16.96;44.83;101409.16;5171373;28;20034;-83
2023/06/03 08:38:40;;;;;;;0.17;0.17;;;;;;;16.99;44.91;101401.94;5184612;28;20041;-85
2023/06/03 08:41:38;;;;;;;0.20;0.20;;;;;;;17.12;45.16;101404.06;5188125;28;20045;-85
2023/06/03 08:44:43;;;;;;;0.30;0.30;;;;;;;17.18;45.04;101403.78;5184203;28;20036;-85
2023/06/03 08:47:46;;;;;;;0.30;0.30;;;;;;;17.29;44.74;101396.25;5166575;28;20029;-85
2023/06/03 08:50:38;;;;;;;0.75;0.63;;;;;;;17.37;44.69;101389.72;5167371;28;20408;-84
2023/06/03 08:53:45;;;;;;;0.20;0.20;;;;;;;17.42;43.98;101395.66;5184998;28;20080;-84
2023/06/03 08:56:41;;;;;;;0.32;0.32;;;;;;;17.40;43.22;101394.88;5183369;28;20040;-84
2023/06/03 08:59:34;;;;;;;0.20;0.20;;;;;;;17.51;43.52;101389.94;5192669;28;20013;-85
2023/06/03 09:02:24;;;;;;;0.30;0.30;;;;;;;17.56;44.30;101385.28;5187789;28;20045;-86
2023/06/03 09:05:16;;;;;;;4.75;0.88;;;;;;;17.73;43.95;101392.47;5192816;28;20034;-85
2023/06/03 09:08:08;;;;;;;0.20;0.20;;;;;;;17.82;43.23;101398.28;5186695;28;20033;-85
2023/06/03 09:10:59;;;;;;;0.25;0.25;;;;;;;17.93;42.25;101390.69;5161572;28;20047;-85
2023/06/03 09:13:52;;;;;;;0.20;0.20;;;;;;;17.93;42.53;101402.16;5172166;28;20029;-85
2023/06/03 09:16:44;;;;;;;0.20;0.20;;;;;;;17.94;41.82;101395.94;5184570;28;20033;-85
2023/06/03 09:19:35;;;;;;;0.43;0.43;;;;;;;18.04;41.82;101395.53;5188004;28;20060;-84
2023/06/03 09:22:26;;;;;;;0.30;0.30;;;;;;;18.04;42.35;101396.38;5179304;28;20029;-84
2023/06/03 09:25:17;;;;;;;0.45;0.45;;;;;;;18.09;42.83;101398.81;5185679;28;20034;-85
2023/06/03 09:28:08;;;;;;;0.63;0.63;;;;;;;18.31;41.91;101401.28;5169206;28;20576;-84
2023/06/03 09:30:58;;;;;;;0.52;0.52;;;;;;;18.29;41.23;101397.00;5185679;28;20041;-84
2023/06/03 09:33:49;;;;;;;0.28;0.28;;;;;;;18.37;40.42;101395.66;5196052;28;20037;-85
2023/06/03 09:36:46;;;;;;;0.30;0.30;;;;;;;18.39;41.25;101403.53;5169698;28;20568;-85
2023/06/03 09:39:37;;;;;;;0.22;0.22;;;;;;;18.46;41.46;101389.06;5168173;28;20564;-85
2023/06/03 09:42:42;;;;;;;0.20;0.20;;;;;;;18.55;40.86;101385.91;5169355;28;20445;-85
2023/06/03 09:45:34;;;;;;;0.20;0.20;;;;;;;18.66;41.19;101392.50;5184217;28;20586;-85
2023/06/03 09:48:25;;;;;;;0.40;0.40;;;;;;;18.68;42.00;101390.63;5168812;28;20121;-85
2023/06/03 09:51:16;;;;;;;0.20;0.20;;;;;;;18.80;41.08;101395.31;5181787;28;20033;-86
2023/06/03 09:54:11;;;;;;;2.72;0.90;;;;;;;18.95;41.17;101390.19;5166108;28;20149;-85
2023/06/03 09:57:10;;;;;;;0.60;0.40;;;;;;;19.08;41.02;101391.25;5183345;28;20039;-85
2023/06/03 10:00:10;;;;;;;0.50;0.50;;;;;;;19.08;41.04;101393.91;5181120;28;20035;-86
2023/06/03 10:03:07;;;;;;;0.57;0.57;;;;;;;19.13;40.14;101389.19;5182799;28;20065;-85
2023/06/03 10:06:16;;;;;;;0.20;0.20;;;;;;;19.11;40.45;101387.56;5186895;28;20076;-85
2023/06/03 10:09:21;;;;;;;0.25;0.25;;;;;;;19.23;40.41;101394.91;5169967;28;20037;-86
2023/06/03 10:12:13;;;;;;;0.30;0.30;;;;;;;19.31;39.19;101389.16;5196576;28;20037;-85
2023/06/03 10:15:04;;;;;;;0.70;0.45;;;;;;;19.33;40.35;101387.28;5167249;28;20076;-86
2023/06/03 10:17:55;;;;;;;1.92;1.08;;;;;;;19.55;40.43;101394.09;5180531;28;20099;-84
2023/06/03 10:20:46;;;;;;;0.30;0.30;;;;;;;19.52;38.42;101394.31;5168809;28;20521;-86
2023/06/03 10:23:39;;;;;;;0.32;0.32;;;;;;;19.39;39.21;101389.63;5198596;28;20160;-85
2023/06/03 10:26:31;;;;;;;2.20;0.90;;;;;;;19.50;40.09;101379.28;5194992;28;20030;-86
2023/06/03 10:29:24;;;;;;;0.55;0.55;;;;;;;19.58;39.81;101386.84;5164519;28;20697;-85
2023/06/03 10:32:16;;;;;;;0.40;0.40;;;;;;;19.74;38.91;101378.88;5166015;28;21435;-86
2023/06/03 10:35:08;;;;;;;0.40;0.40;;;;;;;19.75;39.79;101374.41;5182294;28;20029;-85
2023/06/03 10:38:02;;;;;;;0.35;0.35;;;;;;;19.73;38.62;101366.50;5184467;28;20037;-86
2023/06/03 10:40:53;;;;;;;0.20;0.20;;;;;;;19.95;38.28;101387.50;5181678;28;20413;-85
2023/06/03 10:43:44;;;;;;;0.20;0.20;;;;;;;19.97;38.18;101385.59;5182697;28;20416;-85
2023/06/03 10:46:41;;;;;;;0.45;0.45;;;;;;;19.89;38.27;101387.84;5180678;28;20838;-86
2023/06/03 10:49:48;;;;;;;0.30;0.30;;;;;;;20.02;39.27;101388.00;5196762;28;20029;-86
2023/06/03 10:53:00;;;;;;;0.15;0.15;;;;;;;20.11;37.92;101391.94;5188582;28;20828;-85
2023/06/03 10:56:14;;;;;;;0.20;0.20;;;;;;;20.15;38.84;101392.63;5179679;28;20392;-85
2023/06/03 10:59:11;;;;;;;2.55;1.75;;;;;;;20.29;37.95;101382.03;5165304;28;20049;-85
2023/06/03 11:02:03;;;;;;;0.28;0.28;;;;;;;20.25;38.21;101386.69;5180205;28;20041;-86
2023/06/03 11:05:23;;;;;;;0.38;0.38;;;;;;;20.42;37.49;101375.06;5165148;28;20044;-86
2023/06/03 11:08:14;;;;;;;0.30;0.30;;;;;;;20.49;36.83;101380.03;5191473;28;20536;-85
2023/06/03 11:11:04;;;;;;;0.20;0.20;;;;;;;20.30;37.61;101381.09;5179286;28;20077;-85
2023/06/03 11:13:55;;;;;;;0.20;0.20;;;;;;;20.40;37.22;101376.94;5183882;28;20030;-84
2023/06/03 11:16:58;;;;;;;0.63;0.63;;;;;;;20.52;35.79;101385.19;5168128;28;20125;-84
2023/06/03 11:19:55;;;;;;;1.75;0.65;;;;;;;20.50;36.53;101377.25;5189406;28;20034;-83
2023/06/03 11:22:49;;;;;;;0.65;0.65;;;;;;;20.59;36.86;101381.22;5193648;28;20117;-82
2023/06/03 11:25:39;;;;;;;;;;;;;;;20.69;36.35;101379.72;5190196;28;20029;-84
2023/06/03 11:28:32;;;;;;;0.20;0.20;;;;;;;20.81;37.02;101380.84;5195984;28;19917;-84
2023/06/03 11:31:25;;;;;;;0.43;0.43;;;;;;;20.87;36.96;101374.25;5191408;28;20362;-84
2023/06/03 11:34:25;;;;;;;0.68;0.68;;;;;;;20.96;36.12;101372.84;5196587;28;20037;-84
2023/06/03 11:37:19;;;;;;;0.47;0.47;;;;;;;20.97;36.18;101375.41;5194420;28;20049;-84
2023/06/03 11:40:17;;;;;;;2.20;1.38;;;;;;;20.93;36.46;101373.91;5175069;28;20048;-85
2023/06/03 11:43:08;;;;;;;0.10;0.10;;;;;;;21.01;35.99;101368.06;5190862;28;20037;-84
2023/06/03 11:46:05;;;;;;;0.93;0.68;;;;;;;21.03;36.50;101368.84;5205992;28;20099;-85
2023/06/03 11:48:56;;;;;;;0.30;0.30;;;;;;;21.16;35.71;101364.47;5190600;28;20037;-85
2023/06/03 11:51:52;;;;;;;0.73;0.73;;;;;;;21.24;36.16;101372.00;5174769;28;20517;-85
2023/06/03 11:54:47;;;;;;;1.73;1.38;;;;;;;21.46;35.27;101376.00;5193374;28;20666;-85
2023/06/03 11:57:38;;;;;;;0.40;0.40;;;;;;;21.47;35.65;101364.38;5207033;28;20052;-86
2023/06/03 12:00:29;;;;;;;1.17;0.82;;;;;;;21.58;35.28;101366.38;5188378;28;20033;-85
2023/06/03 12:03:20;;;;;;;0.35;0.35;;;;;;;21.76;36.35;101369.72;5175685;28;20564;-86
2023/06/03 12:06:10;;;;;;;0.88;0.88;;;;;;;21.78;35.73;101365.09;5167200;28;20037;-85
2023/06/03 12:09:01;;;;;;;0.63;0.63;;;;;;;21.82;35.21;101366.66;5186423;28;20033;-84
2023/06/03 12:11:56;;;;;;;0.35;0.32;;;;;;;21.80;34.63;101357.88;5192720;28;20100;-83
2023/06/03 12:14:47;;;;;;;0.25;0.25;;;;;;;21.88;34.74;101355.56;5185516;28;20044;-85
2023/06/03 12:17:38;;;;;;;0.20;0.20;;;;;;;21.97;35.28;101357.63;5191945;28;20124;-85
2023/06/03 12:20:29;;;;;;;0.30;0.30;;;;;;;22.11;34.58;101347.84;5174504;28;20214;-85
2023/06/03 12:23:20;;;;;;;0.45;0.45;;;;;;;22.09;35.77;101352.44;5171175;28;20052;-85
2023/06/03 12:26:10;;;;;;;0.22;0.22;;;;;;;22.12;34.92;101349.56;5172846;28;20029;-85
2023/06/03 12:29:09;;;;;;;0.40;0.40;;;;;;;22.16;34.27;101353.75;5168534;28;20048;-86
2023/06/03 12:32:01;;;;;;;0.52;0.47;;;;;;;22.41;35.19;101349.47;5181925;28;20041;-85
2023/06/03 12:34:52;;;;;;;9.48;3.50;;;;;;;22.46;33.88;101350.88;5173126;28;20634;-86
2023/06/03 12:37:42;;;;;;;15.98;5.18;;;;;;;22.60;34.79;101349.91;5186997;28;20041;-86
2023/06/03 12:40:35;;;;;;;4.20;3.00;;;;;;;22.53;33.24;101350.47;5168633;28;20080;-84
2023/06/03 12:43:25;;;;;;;18.97;11.30;;;;;;;22.65;34.23;101349.59;5198683;28;20076;-86
2023/06/03 12:46:18;;;;;;;2.72;1.27;;;;;;;22.70;34.19;101351.97;5187195;28;20030;-85
2023/06/03 12:49:13;;;;;;;1.77;1.00;;;;;;;22.79;33.59;101351.34;5183567;28;20030;-85
2023/06/03 12:52:10;;;;;;;0.47;0.47;;;;;;;22.92;33.44;101352.22;5180955;28;20471;-85
2023/06/03 12:55:02;;;;;;;0.38;0.38;;;;;;;22.95;33.23;101335.94;5171682;28;20088;-84
2023/06/03 12:57:53;;;;;;;1.35;0.95;;;;;;;23.05;33.22;101341.53;5198245;28;20033;-84
2023/06/03 13:00:44;;;;;;;0.68;0.68;;;;;;;23.06;33.74;101343.19;5182219;28;20045;-82
2023/06/03 13:03:34;;;;;;;0.30;0.30;;;;;;;23.12;34.23;101333.91;5167222;28;20168;-82
2023/06/03 13:06:25;;;;;;;0.20;0.20;;;;;;;23.16;33.35;101331.84;5198116;28;20096;-83
2023/06/03 13:09:16;;;;;;;0.52;0.52;;;;;;;23.19;32.85;101345.06;5198816;28;20413;-85
2023/06/03 13:12:07;;;;;;;0.40;0.40;;;;;;;23.38;33.46;101347.28;5185175;28;20025;-82
2023/06/03 13:14:59;;;;;;;0.20;0.20;;;;;;;23.37;31.99;101345.56;5175628;28;20578;-83
2023/06/03 13:17:50;;;;;;;0.20;0.20;;;;;;;23.22;33.03;101331.47;5167467;28;20131;-85
2023/06/03 13:20:40;;;;;;;0.15;0.15;;;;;;;23.50;33.16;101345.53;5167933;28;20030;-85
2023/06/03 13:23:31;;;;;;;0.95;0.40;;;;;;;23.45;32.19;101337.84;5167389;28;20148;-85
2023/06/03 13:26:24;;;;;;;0.45;0.45;;;;;;;23.52;32.49;101339.09;5168764;28;20029;-86
2023/06/03 13:29:14;;;;;;;0.20;0.20;;;;;;;23.46;32.06;101342.22;5195619;28;20021;-84
2023/06/03 13:32:07;;;;;;;0.30;0.30;;;;;;;23.51;32.21;101333.88;5187260;28;20164;-86
2023/06/03 13:34:59;;;;;;;0.20;0.20;;;;;;;23.46;31.81;101342.22;5180593;28;20543;-85
2023/06/03 13:37:49;;;;;;;0.20;0.20;;;;;;;23.75;32.44;101331.22;5184119;28;20034;-85
2023/06/03 13:40:40;;;;;;;0.75;0.75;;;;;;;23.92;32.62;101334.50;5183212;28;20033;-85
2023/06/03 13:43:31;;;;;;;0.43;0.32;;;;;;;23.79;30.43;101343.41;5175093;28;20045;-85
2023/06/03 13:46:22;;;;;;;0.47;0.47;;;;;;;24.03;32.51;101337.25;5170356;28;20038;-86
2023/06/03 13:49:12;;;;;;;0.25;0.25;;;;;;;23.74;30.09;101330.38;5184845;28;20184;-86
2023/06/03 13:52:04;;;;;;;0.30;0.30;;;;;;;23.86;30.06;101331.28;5181686;28;20068;-86
2023/06/03 13:54:55;;;;;;;0.10;0.10;;;;;;;23.98;31.20;101332.22;5165750;28;20750;-85
2023/06/03 13:57:48;;;;;;;0.75;0.65;;;;;;;23.98;31.69;101326.88;5167262;28;20386;-85
2023/06/03 14:00:39;;;;;;;0.45;0.43;;;;;;;23.99;30.98;101330.41;5198117;28;20097;-85
2023/06/03 14:03:30;;;;;;;0.30;0.30;;;;;;;24.19;30.88;101324.41;5184747;28;20050;-85
2023/06/03 14:06:21;;;;;;;0.52;0.47;;;;;;;23.90;29.46;101323.88;5197998;28;20033;-85
2023/06/03 14:09:11;;;;;;;2.00;0.85;;;;;;;24.13;30.22;101321.34;5182397;28;20033;-85
2023/06/03 14:12:02;;;;;;;0.75;0.75;;;;;;;24.05;30.15;101308.50;5197968;28;20044;-84
2023/06/03 14:14:53;;;;;;;0.30;0.30;;;;;;;24.26;30.29;101302.47;5199748;28;20092;-85
2023/06/03 14:17:44;;;;;;;0.20;0.20;;;;;;;24.07;30.76;101306.56;5207223;28;20025;-86
2023/06/03 14:20:35;;;;;;;0.32;0.32;;;;;;;24.13;29.55;101303.44;5197014;28;20025;-85
2023/06/03 14:23:26;;;;;;;0.52;0.52;;;;;;;24.29;30.80;101295.09;5197348;28;20045;-85
2023/06/03 14:26:17;;;;;;;0.30;0.30;;;;;;;24.30;29.14;101299.44;5202912;28;20041;-84
2023/06/03 14:29:10;;;;;;;0.20;0.20;;;;;;;24.29;30.08;101294.22;5186521;28;20087;-85
2023/06/03 14:32:01;;;;;;;0.30;0.30;;;;;;;24.38;29.43;101298.88;5187184;28;20508;-85
2023/06/03 14:34:51;;;;;;;0.65;0.65;;;;;;;24.51;30.35;101299.63;5189669;28;20026;-85